BLUO2: Blue River, Blue, OK

                                SHEF ID:       BLUO2     Blue River near Blue, OK
STATION TYPE:
Regulating: Stage = 21.00, Flow = 5001

PRECIP STAGE RIV-FLOW BAT-LOAD
in ft cfs volt
Ccp-Rev Ccp-Rev Ccp-Rev Ccp-Rev
(America/Chicago)
05/01 00:00 0.01 7.99 358 12.89
05/01 01:00 0.00 7.94 349 12.89
05/01 02:00 0.00 7.88 338 12.89
05/01 03:00 0.00 7.85 332 12.81
05/01 04:00 0.00 7.82 326 12.81
05/01 05:00 0.00 7.78 319 12.81
05/01 06:00 0.00 7.75 313 12.81
05/01 07:00 0.00 7.73 309 12.73
05/01 08:00 0.00 7.69 302 12.81
05/01 09:00 0.00 7.68 300 13.37
05/01 10:00 0.00 7.64 292 13.60
05/01 11:00 0.00 7.63 291 13.44
05/01 12:00 0.00 7.59 283 13.37
05/01 13:00 0.00 7.54 274 13.29
05/01 14:00 0.00 7.53 273 13.68
05/01 15:00 0.00 7.51 269 14.00
05/01 16:00 0.00 7.48 264 14.08
05/01 17:00 0.00 7.44 257 13.68
05/01 18:00 0.00 7.44 257 13.84
05/01 19:00 0.00 7.40 250 13.60
05/01 20:00 0.00 7.37 245 13.21
05/01 21:00 0.00 7.36 243 12.89
05/01 22:00 0.00 7.35 242 12.97
05/01 23:00 0.00 7.32 237 12.89
Data processed at Sat 02May2026 04:47 GMT

NOTICE: If you are parsing this page

Please convert to using our Data API. Starting early 2026 we will be migrating to: https://water.usace.army.mil with modern pages rendered in JavaScript. When this migration completes you will no longer be able to scrape this page! CWMSDataAPI (CDA)

Timeseries IDs (TSIDs)

TSIDs used from left to right in the data table
BLUE.Precip-Inc.Total.1Hour.1Hour.Ccp-Rev
BLUE.Stage.Inst.1Hour.0.Ccp-Rev
BLUE.Flow.Inst.1Hour.0.Ccp-Rev
BLUE.Volt-Battery Load.Inst.1Hour.0.Ccp-Rev

                            

All information presented herein is the property of the government of the United States of America and may be revised or deleted at any time without prior notice. Dissemination of this information without the expressed written consent of the Public Affairs Office, Tulsa District U.S. Army Corps of Engineers is strictly prohibited. These data are gathered electronically and, as presented, have NOT undergone any form of quality control. These data are NOT guaranteed to be valid or correct.